Time;durP1;ratioP1;P1;durP2;ratioP2;P2;SDS_P1;SDS_P2;PMS_P1;PMS_P2;Temp;Humidity;BMP_temperature;BMP_pressure;BME280_temperature;BME280_humidity;BME280_pressure;Samples;Min_cycle;Max_cycle;Signal;HPM_P1;HPM_P2
2023/07/30 00:01:17;;;;;;;8.50;1.30;;;;;;;;;;6156222;23;20025;-43
2023/07/30 00:03:45;;;;;;;10.17;1.60;;;;;;;;;;6153596;23;20262;-43
2023/07/30 00:06:13;;;;;;;8.98;1.83;;;;;;;;;;6153201;23;20017;-43
2023/07/30 00:08:48;;;;;;;7.82;1.45;;;;;;;;;;6161818;23;20036;-43
2023/07/30 00:11:16;;;;;;;12.02;1.75;;;;;;;;;;6158676;23;20028;-42
2023/07/30 00:13:44;;;;;;;9.38;1.00;;;;;;;;;;6151389;23;20025;-44
2023/07/30 00:16:11;;;;;;;9.60;1.40;;;;;;;;;;6152828;23;20025;-42
2023/07/30 00:18:39;;;;;;;8.95;1.65;;;;;;;;;;6151434;23;20064;-43
2023/07/30 00:21:07;;;;;;;7.72;1.55;;;;;;;;;;6158940;23;20044;-43
2023/07/30 00:23:34;;;;;;;6.38;1.13;;;;;;;;;;6146219;23;20528;-42
2023/07/30 00:26:04;;;;;;;7.70;1.52;;;;;;;;;;6158405;23;20021;-45
2023/07/30 00:28:31;;;;;;;12.87;1.63;;;;;;;;;;6154820;23;20031;-43
2023/07/30 00:30:59;;;;;;;10.15;1.70;;;;;;;;;;6151218;23;20382;-42
2023/07/30 00:33:27;;;;;;;7.60;1.45;;;;;;;;;;6159323;23;20112;-42
2023/07/30 00:35:55;;;;;;;9.00;1.23;;;;;;;;;;6160874;23;20043;-44
2023/07/30 00:38:23;;;;;;;6.75;1.10;;;;;;;;;;6154503;23;20295;-42
2023/07/30 00:40:51;;;;;;;13.47;1.63;;;;;;;;;;6156141;23;20021;-42
2023/07/30 00:43:20;;;;;;;7.30;1.10;;;;;;;;;;6156350;23;20017;-44
2023/07/30 00:45:48;;;;;;;7.30;1.20;;;;;;;;;;6159160;23;20758;-42
2023/07/30 00:48:15;;;;;;;5.45;0.90;;;;;;;;;;6146077;23;20017;-42
2023/07/30 00:50:43;;;;;;;8.23;1.30;;;;;;;;;;6161987;23;20029;-43
2023/07/30 00:53:13;;;;;;;7.57;1.30;;;;;;;;;;6147105;23;20021;-47
2023/07/30 00:55:40;;;;;;;9.23;1.30;;;;;;;;;;6160624;23;20024;-45
2023/07/30 00:58:08;;;;;;;7.97;1.13;;;;;;;;;;6144833;23;20037;-46
2023/07/30 01:00:39;;;;;;;6.97;0.90;;;;;;;;;;6157896;23;20014;-44
2023/07/30 01:03:07;;;;;;;5.78;1.13;;;;;;;;;;6157666;23;20021;-42
2023/07/30 01:05:35;;;;;;;7.00;1.10;;;;;;;;;;6157318;23;20020;-43
2023/07/30 01:08:02;;;;;;;7.70;1.27;;;;;;;;;;6155382;23;20021;-44
2023/07/30 01:10:31;;;;;;;8.52;1.20;;;;;;;;;;6147655;23;20013;-43
2023/07/30 01:13:00;;;;;;;8.20;1.35;;;;;;;;;;6157607;23;20020;-44
2023/07/30 01:15:28;;;;;;;10.82;1.23;;;;;;;;;;6145740;23;20799;-48
2023/07/30 01:17:57;;;;;;;9.13;1.40;;;;;;;;;;6158977;23;20021;-43
2023/07/30 01:20:25;;;;;;;7.93;1.00;;;;;;;;;;6153951;23;20013;-43
2023/07/30 01:22:54;;;;;;;8.48;1.15;;;;;;;;;;6161616;23;20024;-43
2023/07/30 01:25:24;;;;;;;12.48;2.10;;;;;;;;;;6143774;23;20431;-43
2023/07/30 01:27:53;;;;;;;11.27;1.33;;;;;;;;;;6160458;23;20031;-42
2023/07/30 01:30:23;;;;;;;9.47;1.73;;;;;;;;;;6154555;23;20009;-44
2023/07/30 01:32:52;;;;;;;12.38;1.77;;;;;;;;;;6152636;23;20017;-42
2023/07/30 01:35:21;;;;;;;8.57;1.30;;;;;;;;;;6136994;23;20391;-42
2023/07/30 01:37:50;;;;;;;11.45;0.90;;;;;;;;;;6146104;23;20431;-44
2023/07/30 01:40:19;;;;;;;12.88;1.48;;;;;;;;;;6156831;23;20021;-42
2023/07/30 01:42:47;;;;;;;9.17;1.07;;;;;;;;;;6154687;23;20021;-41
2023/07/30 01:45:15;;;;;;;8.57;1.35;;;;;;;;;;6160834;23;20017;-42
2023/07/30 01:47:43;;;;;;;7.75;1.17;;;;;;;;;;6149698;23;20024;-45
2023/07/30 01:50:12;;;;;;;9.65;1.17;;;;;;;;;;6162464;23;20021;-44
2023/07/30 01:52:39;;;;;;;6.35;1.60;;;;;;;;;;6147310;23;20359;-41
2023/07/30 01:55:07;;;;;;;6.73;1.20;;;;;;;;;;6163838;23;20021;-42
2023/07/30 01:57:37;;;;;;;10.73;1.38;;;;;;;;;;6156109;23;20565;-42
2023/07/30 02:00:05;;;;;;;7.97;1.35;;;;;;;;;;6158496;23;20104;-42
2023/07/30 02:02:35;;;;;;;10.85;1.98;;;;;;;;;;6156889;23;20032;-41
2023/07/30 02:05:04;;;;;;;8.18;1.58;;;;;;;;;;6161235;23;20746;-44
2023/07/30 02:07:31;;;;;;;9.73;1.70;;;;;;;;;;6146601;23;20035;-41
2023/07/30 02:10:00;;;;;;;9.65;1.40;;;;;;;;;;6159483;23;20615;-41
2023/07/30 02:12:27;;;;;;;13.05;1.20;;;;;;;;;;6167587;23;20040;-42
2023/07/30 02:14:56;;;;;;;12.00;1.60;;;;;;;;;;6152627;23;20017;-43
2023/07/30 02:17:24;;;;;;;7.22;1.17;;;;;;;;;;6166616;23;20017;-42
2023/07/30 02:19:52;;;;;;;10.37;2.07;;;;;;;;;;6150641;23;20013;-44
2023/07/30 02:22:19;;;;;;;8.82;2.25;;;;;;;;;;6162765;23;20027;-42
2023/07/30 02:24:47;;;;;;;9.98;1.13;;;;;;;;;;6158850;23;20020;-42
2023/07/30 02:27:15;;;;;;;11.70;1.35;;;;;;;;;;6152377;23;20024;-42
2023/07/30 02:29:43;;;;;;;9.68;1.60;;;;;;;;;;6163018;23;20016;-42
2023/07/30 02:32:12;;;;;;;11.57;2.03;;;;;;;;;;6163113;23;20438;-43
2023/07/30 02:34:40;;;;;;;13.05;1.63;;;;;;;;;;6160885;23;20443;-42
2023/07/30 02:37:09;;;;;;;9.05;1.52;;;;;;;;;;6161335;23;20020;-42
2023/07/30 02:39:37;;;;;;;13.45;1.65;;;;;;;;;;6166588;23;20013;-42
2023/07/30 02:42:05;;;;;;;7.68;1.42;;;;;;;;;;6149227;23;20040;-43
2023/07/30 02:44:33;;;;;;;10.60;1.30;;;;;;;;;;6160756;23;20039;-45
2023/07/30 02:47:00;;;;;;;9.88;1.13;;;;;;;;;;6157969;23;20017;-42
2023/07/30 02:49:30;;;;;;;8.65;1.45;;;;;;;;;;6141871;23;20832;-43
2023/07/30 02:51:58;;;;;;;11.90;1.55;;;;;;;;;;6163986;23;20017;-44
2023/07/30 02:54:35;;;;;;;8.57;1.40;;;;;;;;;;6142355;23;20024;-42
2023/07/30 02:57:02;;;;;;;11.87;1.23;;;;;;;;;;6154025;23;20387;-42
2023/07/30 02:59:30;;;;;;;10.35;1.83;;;;;;;;;;6160282;23;20013;-42
2023/07/30 03:01:58;;;;;;;11.63;2.00;;;;;;;;;;6153938;23;20532;-43
2023/07/30 03:04:25;;;;;;;8.80;1.70;;;;;;;;;;6148800;23;20044;-44
2023/07/30 03:06:55;;;;;;;9.20;1.58;;;;;;;;;;6137429;23;20017;-46
2023/07/30 03:09:22;;;;;;;10.53;1.73;;;;;;;;;;6164151;23;20035;-43
2023/07/30 03:11:50;;;;;;;11.43;1.58;;;;;;;;;;6159204;23;20024;-42
2023/07/30 03:14:20;;;;;;;11.20;1.77;;;;;;;;;;6161992;23;20017;-48
2023/07/30 03:16:48;;;;;;;14.30;1.88;;;;;;;;;;6150432;23;20458;-44
2023/07/30 03:19:15;;;;;;;9.73;1.67;;;;;;;;;;6167320;23;20052;-44
2023/07/30 03:21:43;;;;;;;7.30;1.83;;;;;;;;;;6156867;23;20067;-44
2023/07/30 03:24:12;;;;;;;12.32;2.28;;;;;;;;;;6155836;23;20027;-44
2023/07/30 03:26:40;;;;;;;11.25;1.30;;;;;;;;;;6153319;23;20024;-42
2023/07/30 03:29:09;;;;;;;10.70;1.98;;;;;;;;;;6160949;23;20410;-43
2023/07/30 03:31:36;;;;;;;8.93;1.50;;;;;;;;;;6159979;23;20040;-42
2023/07/30 03:34:04;;;;;;;9.80;1.53;;;;;;;;;;6155544;23;20751;-43
2023/07/30 03:36:32;;;;;;;9.55;1.38;;;;;;;;;;6159840;23;20456;-43
2023/07/30 03:39:00;;;;;;;8.98;1.48;;;;;;;;;;6169134;23;20017;-44
2023/07/30 03:41:29;;;;;;;13.35;1.98;;;;;;;;;;6160084;23;20020;-42
2023/07/30 03:43:56;;;;;;;13.95;1.75;;;;;;;;;;6157909;23;20099;-42
2023/07/30 03:46:24;;;;;;;10.87;1.57;;;;;;;;;;6167220;23;20265;-42
2023/07/30 03:48:52;;;;;;;7.55;1.67;;;;;;;;;;6154739;23;20040;-42
2023/07/30 03:51:19;;;;;;;12.25;1.85;;;;;;;;;;6166591;23;20032;-42
2023/07/30 03:53:47;;;;;;;12.80;2.15;;;;;;;;;;6143531;23;20017;-42
2023/07/30 03:56:15;;;;;;;11.60;2.38;;;;;;;;;;6163189;23;20686;-42
2023/07/30 03:58:44;;;;;;;15.03;1.50;;;;;;;;;;6150539;23;20021;-42
2023/07/30 04:01:11;;;;;;;11.13;2.28;;;;;;;;;;6163696;23;20013;-43
2023/07/30 04:03:57;;;;;;;11.35;1.88;;;;;;;;;;6164899;23;20024;-42
2023/07/30 04:06:24;;;;;;;12.63;1.52;;;;;;;;;;6147973;23;20032;-42
2023/07/30 04:08:52;;;;;;;9.85;1.42;;;;;;;;;;6163227;23;20325;-42
2023/07/30 04:11:20;;;;;;;13.17;1.90;;;;;;;;;;6153484;23;20037;-42
2023/07/30 04:13:49;;;;;;;9.93;1.45;;;;;;;;;;6158027;23;20719;-43
2023/07/30 04:16:17;;;;;;;11.40;1.63;;;;;;;;;;6161681;23;20044;-44
2023/07/30 04:18:44;;;;;;;11.32;2.05;;;;;;;;;;6160149;23;20013;-42
2023/07/30 04:21:13;;;;;;;18.30;1.70;;;;;;;;;;6153539;23;20025;-42
2023/07/30 04:23:41;;;;;;;9.67;1.30;;;;;;;;;;6158439;23;20029;-42
2023/07/30 04:26:08;;;;;;;14.77;2.10;;;;;;;;;;6154870;23;20020;-42
2023/07/30 04:28:36;;;;;;;13.93;2.00;;;;;;;;;;6159593;23;20017;-42
2023/07/30 04:31:05;;;;;;;10.15;1.42;;;;;;;;;;6159013;23;20017;-42
2023/07/30 04:33:33;;;;;;;16.02;2.00;;;;;;;;;;6164787;23;20017;-42
2023/07/30 04:36:02;;;;;;;11.20;1.63;;;;;;;;;;6154169;23;20028;-42
2023/07/30 04:38:30;;;;;;;9.13;2.10;;;;;;;;;;6167086;23;20009;-44
2023/07/30 04:40:58;;;;;;;11.43;1.80;;;;;;;;;;6158386;23;20021;-43
2023/07/30 04:43:26;;;;;;;10.18;1.40;;;;;;;;;;6165753;23;20276;-46
2023/07/30 04:45:54;;;;;;;15.70;2.45;;;;;;;;;;6155555;23;20044;-49
2023/07/30 04:48:23;;;;;;;12.43;1.80;;;;;;;;;;6159744;23;20017;-43
2023/07/30 04:50:51;;;;;;;10.82;1.92;;;;;;;;;;6151305;23;20021;-43
2023/07/30 04:53:22;;;;;;;12.15;1.85;;;;;;;;;;6156797;23;20013;-44
2023/07/30 04:55:55;;;;;;;13.00;1.30;;;;;;;;;;6160812;23;20017;-43
2023/07/30 04:58:23;;;;;;;11.02;2.10;;;;;;;;;;6153075;23;20021;-42
2023/07/30 05:00:51;;;;;;;10.27;1.47;;;;;;;;;;6160328;23;20032;-43
2023/07/30 05:03:18;;;;;;;9.50;1.70;;;;;;;;;;6151312;23;20178;-44
2023/07/30 05:05:48;;;;;;;14.68;1.95;;;;;;;;;;6152996;23;20023;-45
2023/07/30 05:08:15;;;;;;;14.35;2.40;;;;;;;;;;6149192;23;20036;-43
2023/07/30 05:10:43;;;;;;;10.45;1.30;;;;;;;;;;6161843;23;20017;-43
2023/07/30 05:13:12;;;;;;;9.83;1.40;;;;;;;;;;6157809;23;20317;-44
2023/07/30 05:15:40;;;;;;;9.20;2.17;;;;;;;;;;6151133;23;20028;-43
2023/07/30 05:18:08;;;;;;;8.98;1.55;;;;;;;;;;6157816;23;20428;-44
2023/07/30 05:20:36;;;;;;;11.65;2.13;;;;;;;;;;6152937;23;20081;-43
2023/07/30 05:23:07;;;;;;;13.57;2.20;;;;;;;;;;6159400;23;20028;-44
2023/07/30 05:25:36;;;;;;;13.57;1.70;;;;;;;;;;6159425;23;20021;-43
2023/07/30 05:28:04;;;;;;;9.10;1.58;;;;;;;;;;6149212;23;20451;-43
2023/07/30 05:30:31;;;;;;;16.25;1.83;;;;;;;;;;6157859;23;20104;-43
2023/07/30 05:32:59;;;;;;;11.38;1.90;;;;;;;;;;6150686;23;20024;-42
2023/07/30 05:35:27;;;;;;;13.38;2.50;;;;;;;;;;6160791;23;20017;-43
2023/07/30 05:37:58;;;;;;;9.87;2.03;;;;;;;;;;6142012;23;20027;-46
2023/07/30 05:40:27;;;;;;;15.25;2.58;;;;;;;;;;6161057;23;20436;-43
2023/07/30 05:42:55;;;;;;;15.77;2.47;;;;;;;;;;6153308;23;20017;-44
2023/07/30 05:45:22;;;;;;;11.90;1.23;;;;;;;;;;6148717;23;20025;-43
2023/07/30 05:47:50;;;;;;;8.77;1.40;;;;;;;;;;6158346;23;20025;-43
2023/07/30 05:50:18;;;;;;;14.57;1.37;;;;;;;;;;6150243;23;20458;-43
2023/07/30 05:52:46;;;;;;;12.98;1.30;;;;;;;;;;6158149;23;20027;-43
2023/07/30 05:55:13;;;;;;;11.23;1.65;;;;;;;;;;6142026;23;20551;-43
2023/07/30 05:57:43;;;;;;;11.48;1.30;;;;;;;;;;6162874;23;20023;-45
2023/07/30 06:00:11;;;;;;;10.40;1.35;;;;;;;;;;6152294;23;20017;-45
2023/07/30 06:02:39;;;;;;;11.57;1.30;;;;;;;;;;6154562;23;20017;-43
2023/07/30 06:05:07;;;;;;;8.30;1.60;;;;;;;;;;6153194;23;20013;-44
2023/07/30 06:07:35;;;;;;;10.68;1.30;;;;;;;;;;6155635;23;20013;-44
2023/07/30 06:10:03;;;;;;;15.32;1.60;;;;;;;;;;6141016;23;20020;-44
2023/07/30 06:12:35;;;;;;;13.18;1.90;;;;;;;;;;6154696;23;20052;-43
2023/07/30 06:15:06;;;;;;;13.70;1.63;;;;;;;;;;6155044;23;20013;-48
2023/07/30 06:17:34;;;;;;;11.50;1.77;;;;;;;;;;6159710;23;20075;-45
2023/07/30 06:20:02;;;;;;;12.85;1.60;;;;;;;;;;6142832;23;20021;-44
2023/07/30 06:22:30;;;;;;;13.98;1.75;;;;;;;;;;6159178;23;20023;-43
2023/07/30 06:24:58;;;;;;;7.10;1.08;;;;;;;;;;6148659;23;20017;-43
2023/07/30 06:27:26;;;;;;;9.23;1.30;;;;;;;;;;6157523;23;20089;-46
2023/07/30 06:29:53;;;;;;;9.18;1.40;;;;;;;;;;6143521;23;20104;-44
2023/07/30 06:32:23;;;;;;;10.93;1.67;;;;;;;;;;6152677;23;20023;-44
2023/07/30 06:34:50;;;;;;;9.88;1.50;;;;;;;;;;6149059;23;20517;-44
2023/07/30 06:37:18;;;;;;;10.15;1.95;;;;;;;;;;6153101;23;20563;-43
2023/07/30 06:39:46;;;;;;;12.60;1.57;;;;;;;;;;6152112;23;20023;-43
2023/07/30 06:42:14;;;;;;;16.02;2.15;;;;;;;;;;6153482;23;20025;-44
2023/07/30 06:44:41;;;;;;;11.27;1.55;;;;;;;;;;6159500;23;20411;-43
2023/07/30 06:47:09;;;;;;;12.48;2.15;;;;;;;;;;6150845;23;20017;-44
2023/07/30 06:49:38;;;;;;;12.23;1.60;;;;;;;;;;6153109;23;20079;-43
2023/07/30 06:52:06;;;;;;;10.40;1.40;;;;;;;;;;6144821;23;20272;-43
2023/07/30 06:54:34;;;;;;;9.95;1.45;;;;;;;;;;6160193;23;20023;-43
2023/07/30 06:57:06;;;;;;;7.72;1.25;;;;;;;;;;6149383;23;20013;-44
2023/07/30 06:59:34;;;;;;;14.40;1.42;;;;;;;;;;6160250;23;20023;-43
2023/07/30 07:02:02;;;;;;;12.13;2.05;;;;;;;;;;6148339;23;20024;-43
2023/07/30 07:04:33;;;;;;;12.40;1.73;;;;;;;;;;6158747;23;20020;-44
2023/07/30 07:07:03;;;;;;;12.07;1.83;;;;;;;;;;6153119;23;20020;-43
2023/07/30 07:09:31;;;;;;;11.35;1.23;;;;;;;;;;6151757;23;20040;-42
2023/07/30 07:11:59;;;;;;;10.05;1.30;;;;;;;;;;6151644;23;20020;-42
2023/07/30 07:14:27;;;;;;;14.02;1.75;;;;;;;;;;6152067;23;20647;-43
2023/07/30 07:16:55;;;;;;;11.00;1.70;;;;;;;;;;6153130;23;20522;-43
2023/07/30 07:19:23;;;;;;;12.88;2.28;;;;;;;;;;6155227;23;20013;-43
2023/07/30 07:21:57;;;;;;;12.02;2.20;;;;;;;;;;6159629;23;20359;-43
2023/07/30 07:24:26;;;;;;;11.35;2.25;;;;;;;;;;6142589;23;20363;-42
2023/07/30 07:26:53;;;;;;;11.43;2.55;;;;;;;;;;6159453;23;20013;-43
2023/07/30 07:29:21;;;;;;;10.87;1.90;;;;;;;;;;6148952;23;20020;-43
2023/07/30 07:31:49;;;;;;;9.32;1.40;;;;;;;;;;6154905;23;20021;-43
2023/07/30 07:34:16;;;;;;;11.45;1.65;;;;;;;;;;6153129;23;20453;-42
2023/07/30 07:36:44;;;;;;;10.10;2.15;;;;;;;;;;6158100;23;20028;-44
2023/07/30 07:39:12;;;;;;;11.85;1.73;;;;;;;;;;6138981;23;20342;-42
2023/07/30 07:41:41;;;;;;;11.73;1.90;;;;;;;;;;6158508;23;20013;-44
2023/07/30 07:44:09;;;;;;;11.70;1.92;;;;;;;;;;6152023;23;20021;-42
2023/07/30 07:46:36;;;;;;;12.55;2.22;;;;;;;;;;6153930;23;20021;-43
2023/07/30 07:49:04;;;;;;;8.73;1.55;;;;;;;;;;6149009;23;20024;-43
2023/07/30 07:51:33;;;;;;;11.07;1.38;;;;;;;;;;6158988;23;20049;-44
2023/07/30 07:54:01;;;;;;;8.77;1.50;;;;;;;;;;6151510;23;20037;-42
2023/07/30 07:56:28;;;;;;;11.43;2.17;;;;;;;;;;6157249;23;20080;-42
2023/07/30 07:58:58;;;;;;;15.45;2.55;;;;;;;;;;6152372;23;20052;-45
2023/07/30 08:01:26;;;;;;;8.98;1.38;;;;;;;;;;6147453;23;20032;-42
2023/07/30 08:03:53;;;;;;;9.77;1.85;;;;;;;;;;6152556;23;20020;-43
2023/07/30 08:06:22;;;;;;;11.37;2.43;;;;;;;;;;6132345;23;20091;-43
2023/07/30 08:08:50;;;;;;;8.63;1.52;;;;;;;;;;6161251;23;20025;-45
2023/07/30 08:11:18;;;;;;;14.43;1.83;;;;;;;;;;6143917;23;20032;-42
2023/07/30 08:13:46;;;;;;;11.32;2.03;;;;;;;;;;6152298;23;20377;-47
2023/07/30 08:16:17;;;;;;;13.48;2.28;;;;;;;;;;6159035;23;20013;-43
2023/07/30 08:18:45;;;;;;;10.40;1.93;;;;;;;;;;6159527;23;20037;-43
2023/07/30 08:21:12;;;;;;;10.02;1.77;;;;;;;;;;6150274;23;20133;-44
2023/07/30 08:23:40;;;;;;;9.35;1.92;;;;;;;;;;6158926;23;20013;-45
2023/07/30 08:26:08;;;;;;;11.93;2.17;;;;;;;;;;6148298;23;20447;-44
2023/07/30 08:28:35;;;;;;;14.38;2.25;;;;;;;;;;6156704;23;20024;-43
2023/07/30 08:31:03;;;;;;;10.77;2.00;;;;;;;;;;6139785;23;20173;-43
2023/07/30 08:33:32;;;;;;;9.57;1.92;;;;;;;;;;6157987;23;20037;-43
2023/07/30 08:36:00;;;;;;;10.57;1.42;;;;;;;;;;6148174;23;20023;-44
2023/07/30 08:38:29;;;;;;;11.45;2.10;;;;;;;;;;6154075;23;20444;-44
2023/07/30 08:40:57;;;;;;;11.88;2.03;;;;;;;;;;6153255;23;20028;-43
2023/07/30 08:43:26;;;;;;;12.83;2.53;;;;;;;;;;6153139;23;20733;-43
2023/07/30 08:45:53;;;;;;;12.13;2.42;;;;;;;;;;6141911;23;20017;-42
2023/07/30 08:48:21;;;;;;;13.73;1.70;;;;;;;;;;6153473;23;20112;-44
2023/07/30 08:50:50;;;;;;;12.82;2.92;;;;;;;;;;6149328;23;20108;-42
2023/07/30 08:53:18;;;;;;;10.25;2.20;;;;;;;;;;6157708;23;20079;-42
2023/07/30 08:55:46;;;;;;;17.37;2.50;;;;;;;;;;6155136;23;20032;-42
2023/07/30 08:58:17;;;;;;;8.88;1.95;;;;;;;;;;6149810;23;20028;-47
2023/07/30 09:00:47;;;;;;;11.88;2.30;;;;;;;;;;6163808;23;20028;-42
2023/07/30 09:03:18;;;;;;;7.88;1.63;;;;;;;;;;6143882;23;20013;-42
2023/07/30 09:05:46;;;;;;;14.05;1.88;;;;;;;;;;6149751;23;20422;-42
2023/07/30 09:08:15;;;;;;;10.60;1.80;;;;;;;;;;6150385;23;20021;-44
2023/07/30 09:10:44;;;;;;;9.07;1.42;;;;;;;;;;6150530;23;20040;-44
2023/07/30 09:13:12;;;;;;;12.05;2.53;;;;;;;;;;6152193;23;20549;-42
2023/07/30 09:15:40;;;;;;;11.35;2.20;;;;;;;;;;6149174;23;20017;-44
2023/07/30 09:18:08;;;;;;;12.52;2.95;;;;;;;;;;6151923;23;20490;-43
2023/07/30 09:20:39;;;;;;;10.33;2.43;;;;;;;;;;6148899;23;20100;-44
2023/07/30 09:23:07;;;;;;;10.02;2.33;;;;;;;;;;6153941;23;20333;-42
2023/07/30 09:25:37;;;;;;;11.77;1.77;;;;;;;;;;6163183;23;20021;-43
2023/07/30 09:28:06;;;;;;;13.85;2.10;;;;;;;;;;6145962;23;20124;-42
2023/07/30 09:30:34;;;;;;;11.20;2.05;;;;;;;;;;6161145;23;20021;-43
2023/07/30 09:33:02;;;;;;;7.63;1.70;;;;;;;;;;6148942;23;20462;-43
2023/07/30 09:35:35;;;;;;;11.15;2.03;;;;;;;;;;6151379;23;20036;-42
2023/07/30 09:38:04;;;;;;;7.35;1.60;;;;;;;;;;6153936;23;20020;-46
2023/07/30 09:40:32;;;;;;;8.90;1.52;;;;;;;;;;6150096;23;20108;-43
2023/07/30 09:43:02;;;;;;;13.07;1.70;;;;;;;;;;6149692;23;20017;-44
2023/07/30 09:45:33;;;;;;;6.87;1.33;;;;;;;;;;6154117;23;20013;-43
2023/07/30 09:48:03;;;;;;;9.65;1.88;;;;;;;;;;6153634;23;20021;-44
2023/07/30 09:50:31;;;;;;;7.82;1.67;;;;;;;;;;6149077;23;20117;-44
2023/07/30 09:52:59;;;;;;;8.80;1.50;;;;;;;;;;6155368;23;20047;-43
2023/07/30 09:55:27;;;;;;;9.60;1.92;;;;;;;;;;6153467;23;20023;-42
2023/07/30 09:57:55;;;;;;;7.60;1.83;;;;;;;;;;6154829;23;20025;-43
2023/07/30 10:00:25;;;;;;;8.02;1.48;;;;;;;;;;6144800;23;20013;-43
2023/07/30 10:02:53;;;;;;;7.00;1.55;;;;;;;;;;6154165;23;20364;-44
2023/07/30 10:05:24;;;;;;;8.50;1.40;;;;;;;;;;6149800;23;20039;-43
2023/07/30 10:07:53;;;;;;;6.10;1.20;;;;;;;;;;6154535;23;20049;-44
2023/07/30 10:10:21;;;;;;;7.57;1.90;;;;;;;;;;6147347;23;20435;-45
2023/07/30 10:12:54;;;;;;;5.47;1.30;;;;;;;;;;6154680;23;20510;-48
2023/07/30 10:15:23;;;;;;;5.57;1.00;;;;;;;;;;6158352;23;20792;-45
2023/07/30 10:17:52;;;;;;;5.55;1.00;;;;;;;;;;6148720;23;20439;-43
2023/07/30 10:20:21;;;;;;;4.63;1.00;;;;;;;;;;6158201;23;20052;-47
2023/07/30 10:22:52;;;;;;;4.63;0.87;;;;;;;;;;6146009;23;20017;-44
2023/07/30 10:25:25;;;;;;;3.90;0.75;;;;;;;;;;6131161;23;20379;-44
2023/07/30 10:27:53;;;;;;;3.85;0.60;;;;;;;;;;6136584;23;20017;-42
2023/07/30 10:30:21;;;;;;;4.68;1.00;;;;;;;;;;6146559;23;20530;-42
2023/07/30 10:33:01;;;;;;;4.72;1.13;;;;;;;;;;6153985;23;20443;-44
2023/07/30 10:35:42;;;;;;;3.93;0.90;;;;;;;;;;6158292;23;20551;-42
2023/07/30 10:38:17;;;;;;;4.63;0.90;;;;;;;;;;6152936;23;20020;-42
2023/07/30 10:41:01;;;;;;;3.95;0.90;;;;;;;;;;6153170;23;20013;-43
2023/07/30 10:43:29;;;;;;;4.05;0.80;;;;;;;;;;6156777;23;20025;-46
2023/07/30 10:45:57;;;;;;;4.85;0.85;;;;;;;;;;6146698;23;20020;-42
2023/07/30 10:48:35;;;;;;;3.00;0.63;;;;;;;;;;6160193;23;20321;-46
2023/07/30 10:51:03;;;;;;;4.80;0.82;;;;;;;;;;6157935;23;20443;-44
2023/07/30 10:53:31;;;;;;;3.53;0.80;;;;;;;;;;6154081;23;20025;-46
2023/07/30 10:56:01;;;;;;;3.67;0.88;;;;;;;;;;6154615;23;20372;-43
2023/07/30 10:58:30;;;;;;;3.75;0.90;;;;;;;;;;6153558;23;20424;-43
2023/07/30 11:00:58;;;;;;;4.30;0.97;;;;;;;;;;6158404;23;20392;-47
2023/07/30 11:03:27;;;;;;;5.45;1.05;;;;;;;;;;6143242;23;20255;-45
2023/07/30 11:05:56;;;;;;;4.25;1.25;;;;;;;;;;6153450;23;20021;-44
2023/07/30 11:08:33;;;;;;;4.78;1.17;;;;;;;;;;6154068;23;20641;-46
2023/07/30 11:11:01;;;;;;;4.78;1.25;;;;;;;;;;6149741;23;20028;-44
2023/07/30 11:13:29;;;;;;;4.93;1.00;;;;;;;;;;6131711;23;20067;-44
2023/07/30 11:15:57;;;;;;;5.30;1.30;;;;;;;;;;6159828;23;20017;-48
2023/07/30 11:18:25;;;;;;;4.88;1.02;;;;;;;;;;6140011;23;20459;-43
2023/07/30 11:21:04;;;;;;;8.13;1.70;;;;;;;;;;6159664;23;20021;-43
2023/07/30 11:23:32;;;;;;;6.65;1.63;;;;;;;;;;6150233;23;20439;-44
2023/07/30 11:26:00;;;;;;;6.77;1.10;;;;;;;;;;6148820;23;20025;-43
2023/07/30 11:28:29;;;;;;;6.38;1.17;;;;;;;;;;6152489;23;20017;-45
2023/07/30 11:31:00;;;;;;;5.50;1.55;;;;;;;;;;6156975;23;20037;-44
2023/07/30 11:33:28;;;;;;;6.18;1.38;;;;;;;;;;6147546;23;20021;-43
2023/07/30 11:35:56;;;;;;;4.72;1.23;;;;;;;;;;6156626;23;20017;-45
2023/07/30 11:38:26;;;;;;;5.17;1.30;;;;;;;;;;6147024;23;20024;-43
2023/07/30 11:40:55;;;;;;;5.20;1.27;;;;;;;;;;6159348;23;20040;-43
2023/07/30 11:43:23;;;;;;;5.60;1.33;;;;;;;;;;6158956;23;20025;-46
2023/07/30 11:46:07;;;;;;;5.15;1.60;;;;;;;;;;6148316;23;20024;-43
2023/07/30 11:48:35;;;;;;;6.38;1.70;;;;;;;;;;6145709;23;20041;-42
2023/07/30 11:51:03;;;;;;;6.83;1.40;;;;;;;;;;6151404;23;20023;-45
2023/07/30 11:53:49;;;;;;;6.35;1.40;;;;;;;;;;6147142;23;20127;-44
2023/07/30 11:56:18;;;;;;;7.13;1.33;;;;;;;;;;6154591;23;20055;-46
2023/07/30 11:58:46;;;;;;;5.25;0.98;;;;;;;;;;6143970;23;20024;-46
2023/07/30 12:01:14;;;;;;;6.95;1.13;;;;;;;;;;6153026;23;20017;-47
2023/07/30 12:03:42;;;;;;;5.00;0.93;;;;;;;;;;6151119;23;20028;-48
2023/07/30 12:06:12;;;;;;;4.85;0.90;;;;;;;;;;6153348;23;20020;-47
2023/07/30 12:08:40;;;;;;;5.10;0.90;;;;;;;;;;6158290;23;20074;-45
2023/07/30 12:11:10;;;;;;;5.43;1.00;;;;;;;;;;6143715;23;20109;-45
2023/07/30 12:13:45;;;;;;;4.65;1.13;;;;;;;;;;6151572;23;20111;-43
2023/07/30 12:16:14;;;;;;;5.93;1.17;;;;;;;;;;6157231;23;20053;-43
2023/07/30 12:18:46;;;;;;;4.10;1.15;;;;;;;;;;6155783;23;20021;-44
2023/07/30 12:21:13;;;;;;;5.78;1.45;;;;;;;;;;6143905;23;20048;-46
2023/07/30 12:23:41;;;;;;;4.60;1.15;;;;;;;;;;6152122;23;20016;-44
2023/07/30 12:26:11;;;;;;;3.70;0.80;;;;;;;;;;6143805;23;20028;-43
2023/07/30 12:28:38;;;;;;;4.30;0.83;;;;;;;;;;6151901;23;20096;-43
2023/07/30 12:31:07;;;;;;;3.58;0.90;;;;;;;;;;6145115;23;20341;-45
2023/07/30 12:33:34;;;;;;;4.47;0.70;;;;;;;;;;6156153;23;20052;-49
2023/07/30 12:36:02;;;;;;;3.90;0.73;;;;;;;;;;6146414;23;20370;-44
2023/07/30 12:38:30;;;;;;;3.95;0.98;;;;;;;;;;6149344;23;20354;-43
2023/07/30 12:40:57;;;;;;;2.90;0.63;;;;;;;;;;6143761;23;20447;-43
2023/07/30 12:43:26;;;;;;;3.40;0.80;;;;;;;;;;6157110;23;20451;-43
2023/07/30 12:45:54;;;;;;;4.38;0.82;;;;;;;;;;6147414;23;20021;-47
2023/07/30 12:48:22;;;;;;;3.85;0.95;;;;;;;;;;6150376;23;20017;-42
2023/07/30 12:50:50;;;;;;;3.78;0.90;;;;;;;;;;6145842;23;20032;-44
2023/07/30 12:53:18;;;;;;;4.33;1.00;;;;;;;;;;6149058;23;20013;-44
2023/07/30 12:55:45;;;;;;;4.32;1.25;;;;;;;;;;6139511;23;20017;-44
2023/07/30 12:58:13;;;;;;;4.80;1.35;;;;;;;;;;6151126;23;20028;-44
2023/07/30 13:00:46;;;;;;;4.28;1.13;;;;;;;;;;6149942;23;20036;-43
2023/07/30 13:03:14;;;;;;;5.25;1.08;;;;;;;;;;6151450;23;20021;-45
2023/07/30 13:05:42;;;;;;;3.63;0.80;;;;;;;;;;6154504;23;20028;-42
2023/07/30 13:08:10;;;;;;;3.80;0.52;;;;;;;;;;6145381;23;20059;-43
2023/07/30 13:10:37;;;;;;;4.20;0.70;;;;;;;;;;6162944;23;20009;-45
2023/07/30 13:13:05;;;;;;;3.67;0.80;;;;;;;;;;6147630;23;20428;-42
2023/07/30 13:15:33;;;;;;;3.90;1.10;;;;;;;;;;6142486;23;20028;-45
2023/07/30 13:18:02;;;;;;;4.80;1.53;;;;;;;;;;6153639;23;20052;-43
2023/07/30 13:20:30;;;;;;;2.97;0.65;;;;;;;;;;6145127;23;20099;-43
2023/07/30 13:22:58;;;;;;;3.17;0.70;;;;;;;;;;6151262;23;20348;-44
2023/07/30 13:25:26;;;;;;;2.75;0.60;;;;;;;;;;6155354;23;20115;-46
2023/07/30 13:27:54;;;;;;;4.03;0.85;;;;;;;;;;6153934;23;20031;-46
2023/07/30 13:30:25;;;;;;;3.73;0.80;;;;;;;;;;6158076;23;20063;-44
2023/07/30 13:32:52;;;;;;;3.00;0.50;;;;;;;;;;6136861;23;20036;-44
2023/07/30 13:35:22;;;;;;;4.15;0.90;;;;;;;;;;6158122;23;20355;-44
2023/07/30 13:37:49;;;;;;;3.97;0.73;;;;;;;;;;6137883;23;20111;-44
2023/07/30 13:40:17;;;;;;;3.72;0.95;;;;;;;;;;6156420;23;20106;-46
2023/07/30 13:42:45;;;;;;;2.33;0.50;;;;;;;;;;6150022;23;20444;-43
2023/07/30 13:45:13;;;;;;;3.85;0.60;;;;;;;;;;6156847;23;20033;-46
2023/07/30 13:47:43;;;;;;;3.65;0.80;;;;;;;;;;6156968;23;20021;-43
2023/07/30 13:50:11;;;;;;;4.18;0.60;;;;;;;;;;6147372;23;20091;-45
2023/07/30 13:52:40;;;;;;;4.72;0.90;;;;;;;;;;6152785;23;20440;-43
2023/07/30 13:55:08;;;;;;;7.17;1.00;;;;;;;;;;6144774;23;20020;-44
2023/07/30 13:57:36;;;;;;;5.78;1.40;;;;;;;;;;6150362;23;20017;-45
2023/07/30 14:00:04;;;;;;;6.40;0.93;;;;;;;;;;6145941;23;20831;-43
2023/07/30 14:02:32;;;;;;;6.20;1.33;;;;;;;;;;6157937;23;20121;-43
2023/07/30 14:05:00;;;;;;;9.68;1.98;;;;;;;;;;6147430;23;20626;-45
2023/07/30 14:07:28;;;;;;;9.43;1.27;;;;;;;;;;6157902;23;20443;-44
2023/07/30 14:09:57;;;;;;;8.93;2.30;;;;;;;;;;6127788;23;20186;-43
2023/07/30 14:12:25;;;;;;;9.32;1.95;;;;;;;;;;6147498;23;20455;-43
2023/07/30 14:14:52;;;;;;;10.10;2.35;;;;;;;;;;6148835;23;20028;-43
2023/07/30 14:17:20;;;;;;;7.82;2.00;;;;;;;;;;6139079;23;20025;-43
2023/07/30 14:19:48;;;;;;;9.40;2.10;;;;;;;;;;6151517;23;20063;-43
2023/07/30 14:22:16;;;;;;;10.75;2.58;;;;;;;;;;6142845;23;20018;-43
2023/07/30 14:24:44;;;;;;;10.48;2.70;;;;;;;;;;6154638;23;20021;-45
2023/07/30 14:27:14;;;;;;;5.95;1.90;;;;;;;;;;6150404;23;20035;-44
2023/07/30 14:29:42;;;;;;;7.82;2.22;;;;;;;;;;6134037;23;20018;-44
2023/07/30 14:32:10;;;;;;;13.50;2.80;;;;;;;;;;6150180;23;20017;-43
2023/07/30 14:34:38;;;;;;;10.30;2.53;;;;;;;;;;6147049;23;20368;-43
2023/07/30 14:37:06;;;;;;;9.65;2.22;;;;;;;;;;6155278;23;20016;-44
2023/07/30 14:39:41;;;;;;;8.40;1.90;;;;;;;;;;6139617;23;20431;-44
2023/07/30 14:42:09;;;;;;;8.27;1.75;;;;;;;;;;6155852;23;20017;-43
2023/07/30 14:44:39;;;;;;;5.87;1.57;;;;;;;;;;6151723;23;20104;-46
2023/07/30 14:47:08;;;;;;;7.10;1.35;;;;;;;;;;6141470;23;20013;-43